Date,TemperatureHighF,TemperatureAvgF,TemperatureLowF,DewpointHighF,DewpointAvgF,DewpointLowF,HumidityHigh,HumidityAvg,HumidityLow,PressureMaxIn,PressureMinIn,WindSpeedMaxMPH,WindSpeedAvgMPH,GustSpeedMaxMPH,PrecipitationSumIn
2013-1-1,79,68,61,63,61,58,92,79,55,30.20,30.03,9,3,0,0.00
2013-1-2,79,68,62,70,65,61,97,89,71,30.08,29.98,6,2,0,0.00
2013-1-3,80,69,61,71,66,60,99,89,61,30.11,30.01,9,2,0,0.00
2013-1-4,70,67,63,69,65,62,97,94,89,30.23,30.09,12,6,0,0.00
2013-1-5,77,68,62,69,65,61,98,89,72,30.25,30.14,14,7,0,0.00
2013-1-6,82,71,65,72,67,64,99,90,68,30.18,30.04,8,3,0,0.00
2013-1-7,74,69,67,69,67,65,97,93,83,30.16,30.06,13,9,0,0.00
2013-1-8,81,72,66,72,68,64,99,89,68,30.18,30.08,11,6,0,0.00
2013-1-9,81,75,70,71,69,67,97,84,62,30.24,30.14,13,8,0,0.00
2013-1-10,80,74,69,70,67,64,95,80,62,30.26,30.15,16,8,0,0.00
2013-1-11,79,72,66,70,66,64,94,81,62,30.24,30.10,10,5,0,0.00
2013-1-12,80,73,68,70,68,66,93,83,64,30.16,30.04,9,5,0,0.00
2013-1-13,80,72,67,69,66,64,93,82,68,30.12,30.04,8,5,0,0.00
2013-1-14,81,72,66,67,64,63,92,78,57,30.16,30.09,8,4,0,0.00
2013-1-15,82,72,65,68,65,62,94,78,53,30.12,30.03,6,3,0,0.00
2013-1-16,83,73,65,69,66,61,95,80,49,30.09,29.99,7,2,0,0.00
2013-1-17,80,69,60,71,63,51,95,82,69,30.12,29.98,15,6,0,0.00
2013-1-18,67,58,46,59,51,40,93,76,64,30.28,30.11,15,7,0,0.00
2013-1-19,72,65,59,66,62,57,96,89,76,30.23,30.09,12,8,0,0.00
2013-1-20,80,69,64,70,65,63,97,87,67,30.15,30.01,9,4,0,0.00
2013-1-21,76,67,62,67,63,59,94,89,73,30.08,29.99,10,4,0,0.00
2013-1-22,68,62,57,60,53,47,92,73,57,30.25,30.03,18,7,0,0.00
2013-1-23,72,62,54,55,48,43,74,61,43,30.33,30.22,15,8,0,0.00
2013-1-24,75,63,54,55,50,41,85,67,29,30.32,30.20,9,4,0,0.00
2013-1-25,81,64,52,59,53,49,90,70,41,30.30,30.17,9,1,0,0.00
2013-1-26,77,65,55,59,54,49,88,70,45,30.27,30.15,8,2,0,0.00
2013-1-27,77,67,55,63,58,52,93,75,53,30.27,30.18,11,5,0,0.00
2013-1-28,79,71,65,67,63,60,88,77,62,30.29,30.17,11,4,0,0.00
2013-1-29,82,72,65,69,66,62,95,83,65,30.22,30.08,8,3,0,0.00
2013-1-30,81,72,67,69,66,64,93,83,64,30.09,29.94,13,7,0,0.00
2013-1-31,71,62,51,69,49,35,96,65,36,30.21,29.96,10,5,0,0.00